sensor_id;sensor_type;location;lat;lon;timestamp;P1;durP1;ratioP1;P2;durP2;ratioP2
11998;SDS011;40817;51.520;9.954;2023-02-04T00:00:23;11.45;;;2.53;;
11998;SDS011;40817;51.520;9.954;2023-02-04T00:02:51;13.55;;;2.45;;
11998;SDS011;40817;51.520;9.954;2023-02-04T00:05:19;15.23;;;2.90;;
11998;SDS011;40817;51.520;9.954;2023-02-04T00:07:48;14.45;;;2.30;;
11998;SDS011;40817;51.520;9.954;2023-02-04T00:10:15;13.63;;;2.45;;
11998;SDS011;40817;51.520;9.954;2023-02-04T00:12:46;13.27;;;3.40;;
11998;SDS011;40817;51.520;9.954;2023-02-04T00:15:15;11.63;;;3.25;;
11998;SDS011;40817;51.520;9.954;2023-02-04T00:17:45;12.15;;;2.63;;
11998;SDS011;40817;51.520;9.954;2023-02-04T00:20:12;13.07;;;2.08;;
11998;SDS011;40817;51.520;9.954;2023-02-04T00:22:40;13.73;;;2.38;;
11998;SDS011;40817;51.520;9.954;2023-02-04T00:25:10;11.95;;;2.15;;
11998;SDS011;40817;51.520;9.954;2023-02-04T00:27:38;16.05;;;2.80;;
11998;SDS011;40817;51.520;9.954;2023-02-04T00:30:06;15.18;;;3.72;;
11998;SDS011;40817;51.520;9.954;2023-02-04T00:32:35;11.95;;;2.15;;
11998;SDS011;40817;51.520;9.954;2023-02-04T00:35:02;20.02;;;2.78;;
11998;SDS011;40817;51.520;9.954;2023-02-04T00:37:31;13.35;;;3.15;;
11998;SDS011;40817;51.520;9.954;2023-02-04T00:39:59;18.23;;;2.92;;
11998;SDS011;40817;51.520;9.954;2023-02-04T00:42:28;15.18;;;2.83;;
11998;SDS011;40817;51.520;9.954;2023-02-04T00:44:56;16.20;;;3.08;;
11998;SDS011;40817;51.520;9.954;2023-02-04T00:47:23;16.45;;;2.63;;
11998;SDS011;40817;51.520;9.954;2023-02-04T00:49:51;17.77;;;3.13;;
11998;SDS011;40817;51.520;9.954;2023-02-04T00:52:18;14.98;;;2.65;;
11998;SDS011;40817;51.520;9.954;2023-02-04T00:54:48;15.15;;;3.13;;
11998;SDS011;40817;51.520;9.954;2023-02-04T00:57:19;14.77;;;2.33;;
11998;SDS011;40817;51.520;9.954;2023-02-04T00:59:48;12.18;;;2.75;;
11998;SDS011;40817;51.520;9.954;2023-02-04T01:02:15;18.42;;;2.85;;
11998;SDS011;40817;51.520;9.954;2023-02-04T01:04:42;18.63;;;3.90;;
11998;SDS011;40817;51.520;9.954;2023-02-04T01:07:09;14.80;;;2.70;;
11998;SDS011;40817;51.520;9.954;2023-02-04T01:09:37;15.75;;;3.28;;
11998;SDS011;40817;51.520;9.954;2023-02-04T01:12:04;19.95;;;3.17;;
11998;SDS011;40817;51.520;9.954;2023-02-04T01:14:31;19.23;;;4.05;;
11998;SDS011;40817;51.520;9.954;2023-02-04T01:17:00;18.98;;;3.80;;
11998;SDS011;40817;51.520;9.954;2023-02-04T01:19:27;20.48;;;3.72;;
11998;SDS011;40817;51.520;9.954;2023-02-04T01:21:54;15.75;;;3.10;;
11998;SDS011;40817;51.520;9.954;2023-02-04T01:24:21;21.13;;;3.47;;
11998;SDS011;40817;51.520;9.954;2023-02-04T01:26:49;14.10;;;3.63;;
11998;SDS011;40817;51.520;9.954;2023-02-04T01:29:16;20.25;;;2.70;;
11998;SDS011;40817;51.520;9.954;2023-02-04T01:31:43;8.18;;;2.13;;
11998;SDS011;40817;51.520;9.954;2023-02-04T01:34:12;15.27;;;2.55;;
11998;SDS011;40817;51.520;9.954;2023-02-04T01:36:39;12.70;;;2.05;;
11998;SDS011;40817;51.520;9.954;2023-02-04T01:39:06;7.50;;;2.35;;
11998;SDS011;40817;51.520;9.954;2023-02-04T01:41:33;9.02;;;1.80;;
11998;SDS011;40817;51.520;9.954;2023-02-04T01:44:01;10.95;;;1.98;;
11998;SDS011;40817;51.520;9.954;2023-02-04T01:46:28;9.88;;;1.88;;
11998;SDS011;40817;51.520;9.954;2023-02-04T01:48:58;9.93;;;1.95;;
11998;SDS011;40817;51.520;9.954;2023-02-04T01:51:27;13.82;;;2.10;;
11998;SDS011;40817;51.520;9.954;2023-02-04T01:53:56;11.65;;;2.28;;
11998;SDS011;40817;51.520;9.954;2023-02-04T01:56:24;14.82;;;2.58;;
11998;SDS011;40817;51.520;9.954;2023-02-04T01:58:55;10.65;;;2.40;;
11998;SDS011;40817;51.520;9.954;2023-02-04T02:01:33;11.55;;;2.42;;
11998;SDS011;40817;51.520;9.954;2023-02-04T02:04:06;12.95;;;2.30;;
11998;SDS011;40817;51.520;9.954;2023-02-04T02:06:35;8.10;;;2.30;;
11998;SDS011;40817;51.520;9.954;2023-02-04T02:09:07;16.38;;;3.17;;
11998;SDS011;40817;51.520;9.954;2023-02-04T02:11:35;12.57;;;2.47;;
11998;SDS011;40817;51.520;9.954;2023-02-04T02:14:03;16.00;;;2.30;;
11998;SDS011;40817;51.520;9.954;2023-02-04T02:16:30;14.30;;;2.22;;
11998;SDS011;40817;51.520;9.954;2023-02-04T02:18:57;17.45;;;2.67;;
11998;SDS011;40817;51.520;9.954;2023-02-04T02:21:32;20.52;;;2.78;;
11998;SDS011;40817;51.520;9.954;2023-02-04T02:26:53;14.25;;;2.78;;
11998;SDS011;40817;51.520;9.954;2023-02-04T02:29:22;15.68;;;2.38;;
11998;SDS011;40817;51.520;9.954;2023-02-04T02:31:50;15.30;;;2.33;;
11998;SDS011;40817;51.520;9.954;2023-02-04T02:34:21;18.25;;;3.08;;
11998;SDS011;40817;51.520;9.954;2023-02-04T02:36:48;12.10;;;2.78;;
11998;SDS011;40817;51.520;9.954;2023-02-04T02:39:16;14.30;;;2.95;;
11998;SDS011;40817;51.520;9.954;2023-02-04T02:41:45;17.70;;;2.92;;
11998;SDS011;40817;51.520;9.954;2023-02-04T02:44:13;18.50;;;3.05;;
11998;SDS011;40817;51.520;9.954;2023-02-04T02:46:43;13.88;;;2.85;;
11998;SDS011;40817;51.520;9.954;2023-02-04T02:49:11;12.02;;;3.85;;
11998;SDS011;40817;51.520;9.954;2023-02-04T02:51:41;16.58;;;2.90;;
11998;SDS011;40817;51.520;9.954;2023-02-04T02:54:12;10.93;;;2.20;;
11998;SDS011;40817;51.520;9.954;2023-02-04T02:56:49;22.63;;;2.67;;
11998;SDS011;40817;51.520;9.954;2023-02-04T02:59:17;16.58;;;2.50;;
11998;SDS011;40817;51.520;9.954;2023-02-04T03:01:46;18.65;;;2.63;;
11998;SDS011;40817;51.520;9.954;2023-02-04T03:04:18;15.13;;;2.90;;
11998;SDS011;40817;51.520;9.954;2023-02-04T03:06:47;11.25;;;2.35;;
11998;SDS011;40817;51.520;9.954;2023-02-04T03:09:16;16.90;;;2.53;;
11998;SDS011;40817;51.520;9.954;2023-02-04T03:11:45;9.18;;;1.95;;
11998;SDS011;40817;51.520;9.954;2023-02-04T03:14:14;13.55;;;2.15;;
11998;SDS011;40817;51.520;9.954;2023-02-04T03:16:42;16.58;;;2.50;;
11998;SDS011;40817;51.520;9.954;2023-02-04T03:19:10;10.98;;;2.40;;
11998;SDS011;40817;51.520;9.954;2023-02-04T03:21:38;13.93;;;2.33;;
11998;SDS011;40817;51.520;9.954;2023-02-04T03:24:08;10.38;;;2.25;;
11998;SDS011;40817;51.520;9.954;2023-02-04T03:26:36;16.75;;;3.33;;
11998;SDS011;40817;51.520;9.954;2023-02-04T03:29:05;12.38;;;2.72;;
11998;SDS011;40817;51.520;9.954;2023-02-04T03:31:36;16.13;;;2.67;;
11998;SDS011;40817;51.520;9.954;2023-02-04T03:34:04;11.05;;;1.92;;
11998;SDS011;40817;51.520;9.954;2023-02-04T03:36:31;10.27;;;1.90;;
11998;SDS011;40817;51.520;9.954;2023-02-04T03:39:00;11.90;;;3.08;;
11998;SDS011;40817;51.520;9.954;2023-02-04T03:41:28;10.05;;;2.25;;
11998;SDS011;40817;51.520;9.954;2023-02-04T03:43:56;10.63;;;1.92;;
11998;SDS011;40817;51.520;9.954;2023-02-04T03:46:24;8.10;;;1.63;;
11998;SDS011;40817;51.520;9.954;2023-02-04T03:48:54;10.77;;;2.38;;
11998;SDS011;40817;51.520;9.954;2023-02-04T03:51:22;7.45;;;1.85;;
11998;SDS011;40817;51.520;9.954;2023-02-04T03:53:49;7.47;;;1.85;;
11998;SDS011;40817;51.520;9.954;2023-02-04T03:56:17;6.95;;;1.25;;
11998;SDS011;40817;51.520;9.954;2023-02-04T03:58:44;1.83;;;0.70;;
11998;SDS011;40817;51.520;9.954;2023-02-04T04:01:12;2.40;;;0.40;;
11998;SDS011;40817;51.520;9.954;2023-02-04T04:04:01;0.75;;;0.40;;
11998;SDS011;40817;51.520;9.954;2023-02-04T04:06:48;1.58;;;0.32;;
11998;SDS011;40817;51.520;9.954;2023-02-04T04:09:35;1.02;;;0.50;;
11998;SDS011;40817;51.520;9.954;2023-02-04T04:12:22;0.63;;;0.47;;
11998;SDS011;40817;51.520;9.954;2023-02-04T04:15:09;0.75;;;0.40;;
11998;SDS011;40817;51.520;9.954;2023-02-04T04:17:57;1.10;;;0.50;;
11998;SDS011;40817;51.520;9.954;2023-02-04T04:20:26;3.33;;;0.93;;
11998;SDS011;40817;51.520;9.954;2023-02-04T04:22:54;1.52;;;0.50;;
11998;SDS011;40817;51.520;9.954;2023-02-04T04:25:22;1.55;;;0.80;;
11998;SDS011;40817;51.520;9.954;2023-02-04T04:27:49;2.17;;;0.52;;
11998;SDS011;40817;51.520;9.954;2023-02-04T04:30:17;1.00;;;0.60;;
11998;SDS011;40817;51.520;9.954;2023-02-04T04:32:45;0.73;;;0.57;;
11998;SDS011;40817;51.520;9.954;2023-02-04T04:35:13;2.95;;;0.80;;
11998;SDS011;40817;51.520;9.954;2023-02-04T04:37:42;2.40;;;0.80;;
11998;SDS011;40817;51.520;9.954;2023-02-04T04:40:10;0.85;;;0.70;;
11998;SDS011;40817;51.520;9.954;2023-02-04T04:42:38;0.80;;;0.60;;
11998;SDS011;40817;51.520;9.954;2023-02-04T04:45:06;1.45;;;0.80;;
11998;SDS011;40817;51.520;9.954;2023-02-04T04:47:36;2.03;;;0.80;;
11998;SDS011;40817;51.520;9.954;2023-02-04T04:50:04;1.13;;;0.70;;
11998;SDS011;40817;51.520;9.954;2023-02-04T04:52:33;1.88;;;0.70;;
11998;SDS011;40817;51.520;9.954;2023-02-04T04:55:02;0.82;;;0.60;;
11998;SDS011;40817;51.520;9.954;2023-02-04T04:57:31;2.33;;;0.70;;
11998;SDS011;40817;51.520;9.954;2023-02-04T05:00:00;3.05;;;0.77;;
11998;SDS011;40817;51.520;9.954;2023-02-04T05:02:28;1.80;;;1.10;;
11998;SDS011;40817;51.520;9.954;2023-02-04T05:04:55;2.58;;;1.05;;
11998;SDS011;40817;51.520;9.954;2023-02-04T05:07:23;2.67;;;1.10;;
11998;SDS011;40817;51.520;9.954;2023-02-04T05:09:50;2.72;;;1.50;;
11998;SDS011;40817;51.520;9.954;2023-02-04T05:12:19;2.00;;;1.02;;
11998;SDS011;40817;51.520;9.954;2023-02-04T05:14:47;3.10;;;1.10;;
11998;SDS011;40817;51.520;9.954;2023-02-04T05:17:14;1.50;;;1.25;;
11998;SDS011;40817;51.520;9.954;2023-02-04T05:19:42;1.75;;;0.93;;
11998;SDS011;40817;51.520;9.954;2023-02-04T05:22:10;2.30;;;1.20;;
11998;SDS011;40817;51.520;9.954;2023-02-04T05:24:37;2.20;;;1.40;;
11998;SDS011;40817;51.520;9.954;2023-02-04T05:27:05;3.45;;;1.20;;
11998;SDS011;40817;51.520;9.954;2023-02-04T05:29:34;2.25;;;1.17;;
11998;SDS011;40817;51.520;9.954;2023-02-04T05:32:01;3.03;;;1.20;;
11998;SDS011;40817;51.520;9.954;2023-02-04T05:34:30;2.50;;;1.63;;
11998;SDS011;40817;51.520;9.954;2023-02-04T05:36:57;2.35;;;1.20;;
11998;SDS011;40817;51.520;9.954;2023-02-04T05:39:25;2.20;;;1.30;;
11998;SDS011;40817;51.520;9.954;2023-02-04T05:41:53;2.55;;;1.15;;
11998;SDS011;40817;51.520;9.954;2023-02-04T05:44:23;2.22;;;1.60;;
11998;SDS011;40817;51.520;9.954;2023-02-04T05:46:52;2.40;;;1.30;;
11998;SDS011;40817;51.520;9.954;2023-02-04T05:49:19;2.60;;;1.10;;
11998;SDS011;40817;51.520;9.954;2023-02-04T05:51:48;3.17;;;1.60;;
11998;SDS011;40817;51.520;9.954;2023-02-04T05:54:15;2.72;;;1.50;;
11998;SDS011;40817;51.520;9.954;2023-02-04T05:56:45;2.38;;;1.20;;
11998;SDS011;40817;51.520;9.954;2023-02-04T05:59:13;2.47;;;1.33;;
11998;SDS011;40817;51.520;9.954;2023-02-04T06:01:40;2.58;;;1.50;;
11998;SDS011;40817;51.520;9.954;2023-02-04T06:04:09;4.38;;;1.42;;
11998;SDS011;40817;51.520;9.954;2023-02-04T06:06:37;3.58;;;1.67;;
11998;SDS011;40817;51.520;9.954;2023-02-04T06:09:04;6.30;;;1.70;;
11998;SDS011;40817;51.520;9.954;2023-02-04T06:11:37;4.32;;;1.40;;
11998;SDS011;40817;51.520;9.954;2023-02-04T06:14:04;2.67;;;1.50;;
11998;SDS011;40817;51.520;9.954;2023-02-04T06:16:32;2.10;;;1.40;;
11998;SDS011;40817;51.520;9.954;2023-02-04T06:19:00;4.20;;;1.58;;
11998;SDS011;40817;51.520;9.954;2023-02-04T06:21:29;2.95;;;1.38;;
11998;SDS011;40817;51.520;9.954;2023-02-04T06:23:57;4.40;;;1.65;;
11998;SDS011;40817;51.520;9.954;2023-02-04T06:26:24;2.17;;;1.55;;
11998;SDS011;40817;51.520;9.954;2023-02-04T06:28:52;2.25;;;1.60;;
11998;SDS011;40817;51.520;9.954;2023-02-04T06:31:19;2.42;;;1.77;;
11998;SDS011;40817;51.520;9.954;2023-02-04T06:33:47;4.50;;;1.83;;
11998;SDS011;40817;51.520;9.954;2023-02-04T06:36:15;2.45;;;1.80;;
11998;SDS011;40817;51.520;9.954;2023-02-04T06:38:44;3.13;;;2.00;;
11998;SDS011;40817;51.520;9.954;2023-02-04T06:41:11;2.10;;;1.60;;
11998;SDS011;40817;51.520;9.954;2023-02-04T06:43:39;3.42;;;1.83;;
11998;SDS011;40817;51.520;9.954;2023-02-04T06:46:06;3.67;;;1.80;;
11998;SDS011;40817;51.520;9.954;2023-02-04T06:48:34;3.00;;;1.83;;
11998;SDS011;40817;51.520;9.954;2023-02-04T06:51:01;3.30;;;2.10;;
11998;SDS011;40817;51.520;9.954;2023-02-04T06:53:29;4.45;;;2.00;;
11998;SDS011;40817;51.520;9.954;2023-02-04T06:55:57;4.05;;;2.30;;
11998;SDS011;40817;51.520;9.954;2023-02-04T06:58:25;5.72;;;2.30;;
11998;SDS011;40817;51.520;9.954;2023-02-04T07:00:52;4.68;;;2.33;;
11998;SDS011;40817;51.520;9.954;2023-02-04T07:03:20;2.75;;;2.00;;
11998;SDS011;40817;51.520;9.954;2023-02-04T07:05:48;3.83;;;2.17;;
11998;SDS011;40817;51.520;9.954;2023-02-04T07:08:17;2.78;;;2.00;;
11998;SDS011;40817;51.520;9.954;2023-02-04T07:10:46;3.53;;;2.47;;
11998;SDS011;40817;51.520;9.954;2023-02-04T07:13:15;4.88;;;2.30;;
11998;SDS011;40817;51.520;9.954;2023-02-04T07:15:42;3.55;;;2.28;;
11998;SDS011;40817;51.520;9.954;2023-02-04T07:18:10;4.25;;;1.90;;
11998;SDS011;40817;51.520;9.954;2023-02-04T07:20:38;4.50;;;2.40;;
11998;SDS011;40817;51.520;9.954;2023-02-04T07:23:05;2.55;;;1.92;;
11998;SDS011;40817;51.520;9.954;2023-02-04T07:25:32;2.70;;;2.05;;
11998;SDS011;40817;51.520;9.954;2023-02-04T07:28:00;6.10;;;2.60;;
11998;SDS011;40817;51.520;9.954;2023-02-04T07:30:31;9.18;;;3.13;;
11998;SDS011;40817;51.520;9.954;2023-02-04T07:32:59;4.88;;;3.03;;
11998;SDS011;40817;51.520;9.954;2023-02-04T07:35:26;7.55;;;3.03;;
11998;SDS011;40817;51.520;9.954;2023-02-04T07:37:54;8.32;;;4.85;;
11998;SDS011;40817;51.520;9.954;2023-02-04T07:40:21;5.35;;;3.53;;
11998;SDS011;40817;51.520;9.954;2023-02-04T07:42:49;4.90;;;3.13;;
11998;SDS011;40817;51.520;9.954;2023-02-04T07:45:16;3.53;;;2.38;;
11998;SDS011;40817;51.520;9.954;2023-02-04T07:47:45;4.13;;;2.38;;
11998;SDS011;40817;51.520;9.954;2023-02-04T07:50:13;4.95;;;2.92;;
11998;SDS011;40817;51.520;9.954;2023-02-04T07:52:41;4.10;;;2.95;;
11998;SDS011;40817;51.520;9.954;2023-02-04T07:55:09;4.43;;;2.63;;
11998;SDS011;40817;51.520;9.954;2023-02-04T07:57:36;5.07;;;2.75;;
11998;SDS011;40817;51.520;9.954;2023-02-04T08:00:04;4.63;;;3.15;;
11998;SDS011;40817;51.520;9.954;2023-02-04T08:02:33;6.00;;;2.75;;
11998;SDS011;40817;51.520;9.954;2023-02-04T08:05:02;4.30;;;3.03;;
11998;SDS011;40817;51.520;9.954;2023-02-04T08:07:31;4.38;;;2.50;;
11998;SDS011;40817;51.520;9.954;2023-02-04T08:09:58;6.35;;;2.67;;
11998;SDS011;40817;51.520;9.954;2023-02-04T08:12:26;5.53;;;2.45;;
11998;SDS011;40817;51.520;9.954;2023-02-04T08:14:53;4.15;;;2.58;;
11998;SDS011;40817;51.520;9.954;2023-02-04T08:17:21;4.32;;;2.58;;
11998;SDS011;40817;51.520;9.954;2023-02-04T08:19:48;4.53;;;2.42;;
11998;SDS011;40817;51.520;9.954;2023-02-04T08:22:17;4.40;;;2.47;;
11998;SDS011;40817;51.520;9.954;2023-02-04T08:24:45;5.05;;;2.53;;
11998;SDS011;40817;51.520;9.954;2023-02-04T08:27:13;3.95;;;2.58;;
11998;SDS011;40817;51.520;9.954;2023-02-04T08:29:40;3.67;;;2.58;;
11998;SDS011;40817;51.520;9.954;2023-02-04T08:32:08;3.95;;;2.50;;
11998;SDS011;40817;51.520;9.954;2023-02-04T08:34:37;3.45;;;2.05;;
11998;SDS011;40817;51.520;9.954;2023-02-04T08:37:05;3.80;;;2.30;;
11998;SDS011;40817;51.520;9.954;2023-02-04T08:39:34;6.43;;;2.60;;
11998;SDS011;40817;51.520;9.954;2023-02-04T08:42:02;4.95;;;2.53;;
11998;SDS011;40817;51.520;9.954;2023-02-04T08:44:30;5.22;;;3.00;;
11998;SDS011;40817;51.520;9.954;2023-02-04T08:46:57;4.65;;;2.63;;
11998;SDS011;40817;51.520;9.954;2023-02-04T08:49:25;4.00;;;2.60;;
11998;SDS011;40817;51.520;9.954;2023-02-04T08:51:52;3.47;;;2.40;;
11998;SDS011;40817;51.520;9.954;2023-02-04T08:54:20;4.88;;;2.25;;
11998;SDS011;40817;51.520;9.954;2023-02-04T08:56:48;5.13;;;2.58;;
11998;SDS011;40817;51.520;9.954;2023-02-04T08:59:16;4.15;;;1.98;;
11998;SDS011;40817;51.520;9.954;2023-02-04T09:01:43;2.58;;;1.80;;
11998;SDS011;40817;51.520;9.954;2023-02-04T09:04:13;2.80;;;1.60;;
11998;SDS011;40817;51.520;9.954;2023-02-04T09:06:40;3.30;;;1.60;;
11998;SDS011;40817;51.520;9.954;2023-02-04T09:09:08;2.50;;;1.30;;
11998;SDS011;40817;51.520;9.954;2023-02-04T09:11:39;3.47;;;1.10;;
11998;SDS011;40817;51.520;9.954;2023-02-04T09:14:09;3.03;;;1.77;;
11998;SDS011;40817;51.520;9.954;2023-02-04T09:16:37;3.22;;;1.90;;
11998;SDS011;40817;51.520;9.954;2023-02-04T09:19:05;3.38;;;1.73;;
11998;SDS011;40817;51.520;9.954;2023-02-04T09:21:35;3.20;;;1.58;;
11998;SDS011;40817;51.520;9.954;2023-02-04T09:24:02;3.25;;;1.40;;
11998;SDS011;40817;51.520;9.954;2023-02-04T09:26:30;4.47;;;1.40;;
11998;SDS011;40817;51.520;9.954;2023-02-04T09:28:57;1.50;;;0.90;;
11998;SDS011;40817;51.520;9.954;2023-02-04T09:31:26;1.85;;;1.15;;
11998;SDS011;40817;51.520;9.954;2023-02-04T09:33:54;3.72;;;1.02;;
11998;SDS011;40817;51.520;9.954;2023-02-04T09:36:21;1.17;;;0.70;;
11998;SDS011;40817;51.520;9.954;2023-02-04T09:38:52;2.30;;;1.08;;
11998;SDS011;40817;51.520;9.954;2023-02-04T09:41:20;2.00;;;0.80;;
11998;SDS011;40817;51.520;9.954;2023-02-04T09:43:47;1.73;;;0.70;;
11998;SDS011;40817;51.520;9.954;2023-02-04T09:46:17;1.17;;;0.60;;
11998;SDS011;40817;51.520;9.954;2023-02-04T09:48:49;1.83;;;0.63;;
11998;SDS011;40817;51.520;9.954;2023-02-04T09:51:18;2.83;;;0.55;;
11998;SDS011;40817;51.520;9.954;2023-02-04T09:53:50;1.35;;;0.52;;
11998;SDS011;40817;51.520;9.954;2023-02-04T09:56:19;1.95;;;0.90;;
11998;SDS011;40817;51.520;9.954;2023-02-04T09:58:47;1.95;;;0.82;;
11998;SDS011;40817;51.520;9.954;2023-02-04T10:01:18;3.60;;;0.95;;
11998;SDS011;40817;51.520;9.954;2023-02-04T10:03:47;3.13;;;0.93;;
11998;SDS011;40817;51.520;9.954;2023-02-04T10:06:16;1.85;;;0.80;;
11998;SDS011;40817;51.520;9.954;2023-02-04T10:08:47;2.42;;;1.00;;
11998;SDS011;40817;51.520;9.954;2023-02-04T10:11:17;2.70;;;0.90;;
11998;SDS011;40817;51.520;9.954;2023-02-04T10:13:48;2.13;;;0.95;;
11998;SDS011;40817;51.520;9.954;2023-02-04T10:16:19;1.65;;;0.80;;
11998;SDS011;40817;51.520;9.954;2023-02-04T10:18:55;1.35;;;0.73;;
11998;SDS011;40817;51.520;9.954;2023-02-04T10:21:24;1.65;;;0.77;;
11998;SDS011;40817;51.520;9.954;2023-02-04T10:23:57;1.65;;;0.70;;
11998;SDS011;40817;51.520;9.954;2023-02-04T10:26:28;1.08;;;0.60;;
11998;SDS011;40817;51.520;9.954;2023-02-04T10:28:58;1.25;;;0.85;;
11998;SDS011;40817;51.520;9.954;2023-02-04T10:31:32;2.95;;;0.98;;
11998;SDS011;40817;51.520;9.954;2023-02-04T10:34:09;1.42;;;0.60;;
11998;SDS011;40817;51.520;9.954;2023-02-04T10:36:40;1.65;;;0.93;;
11998;SDS011;40817;51.520;9.954;2023-02-04T10:39:11;1.60;;;0.70;;
11998;SDS011;40817;51.520;9.954;2023-02-04T10:41:45;1.70;;;0.70;;
11998;SDS011;40817;51.520;9.954;2023-02-04T10:44:16;1.45;;;0.77;;
11998;SDS011;40817;51.520;9.954;2023-02-04T10:46:57;3.42;;;1.00;;
11998;SDS011;40817;51.520;9.954;2023-02-04T10:49:27;2.28;;;0.90;;
11998;SDS011;40817;51.520;9.954;2023-02-04T10:52:05;1.40;;;0.80;;
11998;SDS011;40817;51.520;9.954;2023-02-04T10:54:43;1.35;;;0.90;;
11998;SDS011;40817;51.520;9.954;2023-02-04T10:57:13;1.75;;;0.80;;
11998;SDS011;40817;51.520;9.954;2023-02-04T10:59:46;6.18;;;1.00;;
11998;SDS011;40817;51.520;9.954;2023-02-04T11:02:32;1.48;;;0.80;;
11998;SDS011;40817;51.520;9.954;2023-02-04T11:05:12;2.63;;;0.90;;
11998;SDS011;40817;51.520;9.954;2023-02-04T11:07:43;1.67;;;0.90;;
11998;SDS011;40817;51.520;9.954;2023-02-04T11:10:12;2.03;;;0.95;;
11998;SDS011;40817;51.520;9.954;2023-02-04T11:12:44;1.50;;;0.90;;
11998;SDS011;40817;51.520;9.954;2023-02-04T11:15:37;1.75;;;0.80;;
11998;SDS011;40817;51.520;9.954;2023-02-04T11:18:10;3.10;;;1.15;;
11998;SDS011;40817;51.520;9.954;2023-02-04T11:20:56;2.00;;;0.85;;
11998;SDS011;40817;51.520;9.954;2023-02-04T11:23:32;1.10;;;0.75;;
11998;SDS011;40817;51.520;9.954;2023-02-04T11:26:09;1.95;;;1.10;;
11998;SDS011;40817;51.520;9.954;2023-02-04T11:28:44;2.15;;;1.00;;
11998;SDS011;40817;51.520;9.954;2023-02-04T11:31:40;1.67;;;1.00;;
11998;SDS011;40817;51.520;9.954;2023-02-04T11:34:24;1.60;;;1.00;;
11998;SDS011;40817;51.520;9.954;2023-02-04T11:39:43;2.10;;;1.15;;
11998;SDS011;40817;51.520;9.954;2023-02-04T11:42:20;2.47;;;0.77;;
11998;SDS011;40817;51.520;9.954;2023-02-04T11:44:58;2.13;;;1.30;;
11998;SDS011;40817;51.520;9.954;2023-02-04T11:47:38;2.88;;;1.25;;
11998;SDS011;40817;51.520;9.954;2023-02-04T11:50:12;5.15;;;1.90;;
11998;SDS011;40817;51.520;9.954;2023-02-04T11:52:58;2.05;;;0.93;;
11998;SDS011;40817;51.520;9.954;2023-02-04T11:55:28;1.33;;;0.80;;
11998;SDS011;40817;51.520;9.954;2023-02-04T11:57:57;2.13;;;0.82;;
11998;SDS011;40817;51.520;9.954;2023-02-04T12:00:26;1.20;;;0.80;;
11998;SDS011;40817;51.520;9.954;2023-02-04T12:02:57;1.67;;;0.90;;
11998;SDS011;40817;51.520;9.954;2023-02-04T12:05:38;2.08;;;0.90;;
11998;SDS011;40817;51.520;9.954;2023-02-04T12:08:10;1.77;;;1.00;;
11998;SDS011;40817;51.520;9.954;2023-02-04T12:10:57;3.55;;;0.90;;
11998;SDS011;40817;51.520;9.954;2023-02-04T12:13:32;1.67;;;0.80;;
11998;SDS011;40817;51.520;9.954;2023-02-04T12:16:10;1.63;;;0.80;;
11998;SDS011;40817;51.520;9.954;2023-02-04T12:18:38;1.00;;;0.80;;
11998;SDS011;40817;51.520;9.954;2023-02-04T12:21:07;1.25;;;0.70;;
11998;SDS011;40817;51.520;9.954;2023-02-04T12:23:37;3.83;;;1.88;;
11998;SDS011;40817;51.520;9.954;2023-02-04T12:26:05;1.58;;;0.70;;
11998;SDS011;40817;51.520;9.954;2023-02-04T12:28:32;1.92;;;1.02;;
11998;SDS011;40817;51.520;9.954;2023-02-04T12:31:00;2.33;;;0.95;;
11998;SDS011;40817;51.520;9.954;2023-02-04T12:33:28;2.05;;;0.90;;
11998;SDS011;40817;51.520;9.954;2023-02-04T12:35:55;1.40;;;0.90;;
11998;SDS011;40817;51.520;9.954;2023-02-04T12:38:23;1.75;;;0.90;;
11998;SDS011;40817;51.520;9.954;2023-02-04T12:40:53;1.80;;;0.80;;
11998;SDS011;40817;51.520;9.954;2023-02-04T12:43:21;1.88;;;0.90;;
11998;SDS011;40817;51.520;9.954;2023-02-04T12:45:49;1.35;;;0.80;;
11998;SDS011;40817;51.520;9.954;2023-02-04T12:48:17;3.13;;;1.17;;
11998;SDS011;40817;51.520;9.954;2023-02-04T12:50:44;1.83;;;1.30;;
11998;SDS011;40817;51.520;9.954;2023-02-04T12:53:12;1.50;;;0.90;;
11998;SDS011;40817;51.520;9.954;2023-02-04T12:55:43;2.08;;;1.02;;
11998;SDS011;40817;51.520;9.954;2023-02-04T12:58:12;1.90;;;1.35;;
11998;SDS011;40817;51.520;9.954;2023-02-04T13:00:40;1.55;;;0.90;;
11998;SDS011;40817;51.520;9.954;2023-02-04T13:03:09;1.92;;;0.98;;
11998;SDS011;40817;51.520;9.954;2023-02-04T13:05:37;2.13;;;1.00;;
11998;SDS011;40817;51.520;9.954;2023-02-04T13:08:04;1.48;;;0.90;;
11998;SDS011;40817;51.520;9.954;2023-02-04T13:10:32;1.25;;;0.75;;
11998;SDS011;40817;51.520;9.954;2023-02-04T13:12:59;0.93;;;0.63;;
11998;SDS011;40817;51.520;9.954;2023-02-04T13:15:29;1.48;;;0.70;;
11998;SDS011;40817;51.520;9.954;2023-02-04T13:17:56;1.35;;;0.85;;
11998;SDS011;40817;51.520;9.954;2023-02-04T13:20:24;1.23;;;0.68;;
11998;SDS011;40817;51.520;9.954;2023-02-04T13:22:52;1.95;;;0.93;;
11998;SDS011;40817;51.520;9.954;2023-02-04T13:25:19;2.05;;;0.90;;
11998;SDS011;40817;51.520;9.954;2023-02-04T13:27:47;1.58;;;0.73;;
11998;SDS011;40817;51.520;9.954;2023-02-04T13:30:14;1.50;;;0.85;;
11998;SDS011;40817;51.520;9.954;2023-02-04T13:32:44;2.03;;;0.93;;
11998;SDS011;40817;51.520;9.954;2023-02-04T13:35:11;2.08;;;0.80;;
11998;SDS011;40817;51.520;9.954;2023-02-04T13:37:39;1.48;;;0.70;;
11998;SDS011;40817;51.520;9.954;2023-02-04T13:40:07;3.53;;;1.08;;
11998;SDS011;40817;51.520;9.954;2023-02-04T13:42:37;1.92;;;1.00;;
11998;SDS011;40817;51.520;9.954;2023-02-04T13:45:05;1.83;;;0.80;;
11998;SDS011;40817;51.520;9.954;2023-02-04T13:47:36;2.15;;;0.80;;
11998;SDS011;40817;51.520;9.954;2023-02-04T13:50:06;1.35;;;0.75;;
11998;SDS011;40817;51.520;9.954;2023-02-04T13:52:35;1.35;;;0.70;;
11998;SDS011;40817;51.520;9.954;2023-02-04T13:55:02;2.40;;;1.10;;
11998;SDS011;40817;51.520;9.954;2023-02-04T13:57:31;1.70;;;0.90;;
11998;SDS011;40817;51.520;9.954;2023-02-04T13:59:58;2.22;;;0.80;;
11998;SDS011;40817;51.520;9.954;2023-02-04T14:02:26;3.25;;;0.93;;
11998;SDS011;40817;51.520;9.954;2023-02-04T14:04:53;2.13;;;1.00;;
11998;SDS011;40817;51.520;9.954;2023-02-04T14:07:23;1.48;;;0.93;;
11998;SDS011;40817;51.520;9.954;2023-02-04T14:09:51;1.75;;;1.00;;
11998;SDS011;40817;51.520;9.954;2023-02-04T14:12:18;2.60;;;0.93;;
11998;SDS011;40817;51.520;9.954;2023-02-04T14:14:45;1.60;;;0.70;;
11998;SDS011;40817;51.520;9.954;2023-02-04T14:17:13;1.48;;;0.95;;
11998;SDS011;40817;51.520;9.954;2023-02-04T14:19:40;1.65;;;1.00;;
11998;SDS011;40817;51.520;9.954;2023-02-04T14:22:08;3.30;;;0.90;;
11998;SDS011;40817;51.520;9.954;2023-02-04T14:24:38;1.38;;;0.80;;
11998;SDS011;40817;51.520;9.954;2023-02-04T14:27:08;1.80;;;0.90;;
11998;SDS011;40817;51.520;9.954;2023-02-04T14:29:36;1.67;;;0.88;;
11998;SDS011;40817;51.520;9.954;2023-02-04T14:32:03;1.30;;;0.80;;
11998;SDS011;40817;51.520;9.954;2023-02-04T14:34:31;1.75;;;1.10;;
11998;SDS011;40817;51.520;9.954;2023-02-04T14:36:58;1.75;;;0.88;;
11998;SDS011;40817;51.520;9.954;2023-02-04T14:39:26;1.73;;;0.90;;
11998;SDS011;40817;51.520;9.954;2023-02-04T14:41:55;2.35;;;1.10;;
11998;SDS011;40817;51.520;9.954;2023-02-04T14:44:22;2.55;;;1.00;;
11998;SDS011;40817;51.520;9.954;2023-02-04T14:46:49;1.83;;;1.02;;
11998;SDS011;40817;51.520;9.954;2023-02-04T14:49:17;3.13;;;0.93;;
11998;SDS011;40817;51.520;9.954;2023-02-04T14:51:45;2.08;;;0.90;;
11998;SDS011;40817;51.520;9.954;2023-02-04T14:54:12;1.58;;;1.35;;
11998;SDS011;40817;51.520;9.954;2023-02-04T14:56:40;1.75;;;1.08;;
11998;SDS011;40817;51.520;9.954;2023-02-04T14:59:10;1.45;;;0.82;;
11998;SDS011;40817;51.520;9.954;2023-02-04T15:01:37;1.90;;;0.82;;
11998;SDS011;40817;51.520;9.954;2023-02-04T15:04:06;1.98;;;1.10;;